createdAt,value
2022-10-10T00:00:43.034Z,18.30
2022-10-10T00:03:28.701Z,18.20
2022-10-10T00:06:15.180Z,18.20
2022-10-10T00:09:01.762Z,18.10
2022-10-10T00:11:47.293Z,18.10
2022-10-10T00:14:32.943Z,18.40
2022-10-10T00:17:18.631Z,18.10
2022-10-10T00:20:05.578Z,18.10
2022-10-10T00:22:51.103Z,18.20
2022-10-10T00:25:37.832Z,18.30
2022-10-10T00:28:23.786Z,18.20
2022-10-10T00:31:10.209Z,18.20
2022-10-10T00:33:55.984Z,18.20
2022-10-10T00:36:41.520Z,18.30
2022-10-10T00:39:28.525Z,18.30
2022-10-10T00:42:16.374Z,18.30
2022-10-10T00:45:39.159Z,18.20
2022-10-10T00:48:37.394Z,18.30
2022-10-10T00:51:22.946Z,18.20
2022-10-10T00:54:11.728Z,18.20
2022-10-10T00:57:02.641Z,18.30
2022-10-10T00:59:49.132Z,18.20
2022-10-10T01:02:34.541Z,18.30
2022-10-10T01:05:20.242Z,18.30
2022-10-10T01:08:07.495Z,18.40
2022-10-10T01:11:07.627Z,18.50
2022-10-10T01:14:18.065Z,18.80
2022-10-10T01:17:25.270Z,18.70
2022-10-10T01:20:37.746Z,18.70
2022-10-10T01:24:02.394Z,18.30
2022-10-10T01:26:54.123Z,18.50
2022-10-10T01:29:45.440Z,18.70
2022-10-10T01:32:49.291Z,18.60
2022-10-10T01:35:40.185Z,18.70
2022-10-10T01:38:50.721Z,18.80
2022-10-10T01:41:54.013Z,18.90
2022-10-10T01:44:44.911Z,18.50
2022-10-10T01:47:30.658Z,18.80
2022-10-10T01:50:19.763Z,18.70
2022-10-10T01:53:08.619Z,18.80
2022-10-10T01:56:01.759Z,18.30
2022-10-10T01:59:25.751Z,18.10
2022-10-10T02:02:35.408Z,18.20
2022-10-10T02:05:53.041Z,18.40
2022-10-10T02:08:45.672Z,18.10
2022-10-10T02:11:35.410Z,17.80
2022-10-10T02:14:24.985Z,17.90
2022-10-10T02:17:13.037Z,18.10
2022-10-10T02:20:00.209Z,18.10
2022-10-10T02:22:47.177Z,18.00
2022-10-10T02:25:37.662Z,18.20
2022-10-10T02:28:33.574Z,18.00
2022-10-10T02:31:32.510Z,18.10
2022-10-10T02:34:21.451Z,18.00
2022-10-10T02:37:12.534Z,18.10
2022-10-10T02:40:02.612Z,18.10
2022-10-10T02:42:50.471Z,18.10
2022-10-10T02:45:36.512Z,17.80
2022-10-10T02:48:21.982Z,17.50
2022-10-10T02:51:09.262Z,17.50
2022-10-10T02:53:55.142Z,17.50
2022-10-10T02:56:40.655Z,17.50
2022-10-10T02:59:26.291Z,17.50
2022-10-10T03:02:14.871Z,17.50
2022-10-10T03:05:00.579Z,17.60
2022-10-10T03:07:46.303Z,17.80
2022-10-10T03:10:32.471Z,17.70
2022-10-10T03:13:18.619Z,17.70
2022-10-10T03:16:04.579Z,17.60
2022-10-10T03:18:50.219Z,17.80
2022-10-10T03:21:38.738Z,18.00
2022-10-10T03:24:24.127Z,18.00
2022-10-10T03:27:09.827Z,18.00
2022-10-10T03:29:55.431Z,18.00
2022-10-10T03:32:40.924Z,17.90
2022-10-10T03:35:27.719Z,17.90
2022-10-10T03:38:13.802Z,17.80
2022-10-10T03:40:59.574Z,17.90
2022-10-10T03:43:45.013Z,17.70
2022-10-10T03:46:30.984Z,17.70
2022-10-10T03:49:16.616Z,17.80
2022-10-10T03:52:02.559Z,17.60
2022-10-10T03:54:48.860Z,17.60
2022-10-10T03:57:35.142Z,17.50
2022-10-10T04:00:20.981Z,17.60
2022-10-10T04:03:07.262Z,17.30
2022-10-10T04:05:53.726Z,17.70
2022-10-10T04:08:39.414Z,17.70
2022-10-10T04:11:25.295Z,17.80
2022-10-10T04:14:11.258Z,17.80
2022-10-10T04:16:59.759Z,17.90
2022-10-10T04:19:48.725Z,17.90
2022-10-10T04:22:34.184Z,17.90
2022-10-10T04:25:20.140Z,17.90
2022-10-10T04:28:06.641Z,17.70
2022-10-10T04:30:52.447Z,17.70
2022-10-10T04:33:38.127Z,17.70
2022-10-10T04:36:23.639Z,17.50
2022-10-10T04:39:09.375Z,17.50
2022-10-10T04:41:55.482Z,17.30
2022-10-10T04:44:40.914Z,17.10
2022-10-10T04:47:26.577Z,17.10
2022-10-10T04:50:11.879Z,17.10
2022-10-10T04:52:57.627Z,17.10
2022-10-10T04:55:44.451Z,17.00
2022-10-10T04:58:30.389Z,17.10
2022-10-10T05:01:15.946Z,17.10
2022-10-10T05:04:01.645Z,17.00
2022-10-10T05:06:47.093Z,17.00
2022-10-10T05:09:33.790Z,17.10
2022-10-10T05:12:19.562Z,17.10
2022-10-10T05:15:05.278Z,16.90
2022-10-10T05:17:51.030Z,16.90
2022-10-10T05:20:36.580Z,16.90
2022-10-10T05:23:22.054Z,17.10
2022-10-10T05:26:08.064Z,17.40
2022-10-10T05:28:53.639Z,17.50
2022-10-10T05:31:39.781Z,17.70
2022-10-10T05:34:25.469Z,17.80
2022-10-10T05:37:12.105Z,17.80
2022-10-10T05:39:57.867Z,17.70
2022-10-10T05:42:43.526Z,17.80
2022-10-10T05:45:29.207Z,17.70
2022-10-10T05:48:14.588Z,17.70
2022-10-10T05:51:00.426Z,17.50
2022-10-10T05:53:46.187Z,17.40
2022-10-10T05:56:31.535Z,17.50
2022-10-10T05:59:16.978Z,17.70
2022-10-10T06:02:02.563Z,17.70
2022-10-10T06:04:48.110Z,17.50
2022-10-10T06:07:59.068Z,17.20
2022-10-10T06:10:44.308Z,17.10
2022-10-10T06:13:30.865Z,17.10
2022-10-10T06:16:16.895Z,16.90
2022-10-10T06:19:02.851Z,16.90
2022-10-10T06:21:49.825Z,17.00
2022-10-10T06:24:35.696Z,17.20
2022-10-10T06:27:21.790Z,17.40
2022-10-10T06:30:08.405Z,18.50
2022-10-10T06:32:56.869Z,17.20
2022-10-10T06:35:44.587Z,17.50
2022-10-10T06:38:30.064Z,17.70
2022-10-10T06:41:15.615Z,17.90
2022-10-10T06:44:01.559Z,17.90
2022-10-10T06:46:47.692Z,18.10
2022-10-10T06:49:33.518Z,18.30
2022-10-10T06:52:19.701Z,18.20
2022-10-10T06:55:05.500Z,18.50
2022-10-10T06:57:51.205Z,18.20
2022-10-10T07:00:37.106Z,18.10
2022-10-10T07:03:22.925Z,18.00
2022-10-10T07:06:11.239Z,18.10
2022-10-10T07:08:58.156Z,17.60
2022-10-10T07:11:45.522Z,18.00
2022-10-10T07:14:31.163Z,18.20
2022-10-10T07:17:16.770Z,18.30
2022-10-10T07:20:02.695Z,18.10
2022-10-10T07:22:48.943Z,18.20
2022-10-10T07:25:35.031Z,18.60
2022-10-10T07:28:20.627Z,18.50
2022-10-10T07:31:09.672Z,18.40
2022-10-10T07:33:55.294Z,18.50
2022-10-10T07:36:41.252Z,18.50
2022-10-10T07:39:27.234Z,18.50
2022-10-10T07:42:14.555Z,18.30
2022-10-10T07:45:01.284Z,18.30
2022-10-10T07:47:46.884Z,18.50
2022-10-10T07:50:32.744Z,18.50
2022-10-10T07:53:19.182Z,18.50
2022-10-10T07:56:07.097Z,18.50
2022-10-10T07:58:53.431Z,18.50
2022-10-10T08:01:40.240Z,18.70
2022-10-10T08:04:26.249Z,18.80
2022-10-10T08:07:11.756Z,18.80
2022-10-10T08:09:57.300Z,18.60
2022-10-10T08:12:44.334Z,18.90
2022-10-10T08:15:33.806Z,18.50
2022-10-10T08:18:20.181Z,18.20
2022-10-10T08:21:09.057Z,17.90
2022-10-10T08:23:55.688Z,17.90
2022-10-10T08:26:41.325Z,18.00
2022-10-10T08:29:27.051Z,18.00
2022-10-10T08:32:13.311Z,18.40
2022-10-10T08:34:59.013Z,18.60
2022-10-10T08:37:44.321Z,18.20
2022-10-10T08:40:30.226Z,18.00
2022-10-10T08:43:27.515Z,18.50
2022-10-10T08:46:27.589Z,18.40
2022-10-10T08:49:41.104Z,18.30
2022-10-10T08:52:32.379Z,18.10
2022-10-10T08:55:39.845Z,18.20
2022-10-10T08:58:44.720Z,18.20
2022-10-10T09:02:17.785Z,18.20
2022-10-10T09:04:44.267Z,18.20
2022-10-10T09:07:35.358Z,18.50
2022-10-10T09:10:29.772Z,18.40
2022-10-10T09:13:35.223Z,18.40
2022-10-10T09:16:42.718Z,18.30
2022-10-10T09:19:50.492Z,18.30
2022-10-10T09:22:46.711Z,18.60
2022-10-10T09:25:36.032Z,18.50
2022-10-10T09:28:55.420Z,18.50
2022-10-10T09:31:53.865Z,19.10
2022-10-10T09:34:51.181Z,19.30
2022-10-10T09:37:47.822Z,18.70
2022-10-10T09:40:39.589Z,18.70
2022-10-10T09:43:30.939Z,18.50
2022-10-10T09:46:16.644Z,18.70
2022-10-10T09:49:02.943Z,18.80
2022-10-10T09:51:49.617Z,18.70
2022-10-10T09:54:35.165Z,18.50
2022-10-10T09:57:25.829Z,18.60
2022-10-10T10:00:24.625Z,18.60
2022-10-10T10:03:17.076Z,18.90
2022-10-10T10:06:02.955Z,19.60
2022-10-10T10:08:53.639Z,19.50
2022-10-10T10:11:42.049Z,19.00
2022-10-10T10:14:32.184Z,18.90
2022-10-10T10:17:23.048Z,18.90
2022-10-10T10:20:36.036Z,19.10
2022-10-10T10:23:25.617Z,19.70
2022-10-10T10:26:18.668Z,19.20
2022-10-10T10:29:04.166Z,19.50
2022-10-10T10:32:12.247Z,19.50
2022-10-10T10:35:29.231Z,19.60
2022-10-10T10:38:35.295Z,19.50
2022-10-10T10:41:45.848Z,19.20
2022-10-10T10:44:40.580Z,19.10
2022-10-10T10:47:54.615Z,19.20
2022-10-10T10:50:45.551Z,19.30
2022-10-10T10:53:59.606Z,19.30
2022-10-10T10:57:40.585Z,19.50
2022-10-10T11:01:20.281Z,19.90
2022-10-10T11:05:17.994Z,19.90
2022-10-10T11:07:19.450Z,20.70
2022-10-10T11:10:17.580Z,20.10
2022-10-10T11:13:21.563Z,20.00
2022-10-10T11:16:46.984Z,19.80
2022-10-10T11:19:56.795Z,20.70
2022-10-10T11:22:48.508Z,20.60
2022-10-10T11:25:41.125Z,20.70
2022-10-10T11:28:28.581Z,21.40
2022-10-10T11:31:24.651Z,21.20
2022-10-10T11:34:23.673Z,22.10
2022-10-10T11:37:18.288Z,20.90
2022-10-10T11:40:06.513Z,20.40
2022-10-10T11:42:59.238Z,20.90
2022-10-10T11:45:52.320Z,20.60
2022-10-10T11:48:46.152Z,20.50
2022-10-10T11:51:47.251Z,20.60
2022-10-10T11:54:41.642Z,20.50
2022-10-10T11:57:34.191Z,21.00
2022-10-10T12:00:20.473Z,22.10
2022-10-10T12:03:08.771Z,22.50
2022-10-10T12:06:25.421Z,22.00
2022-10-10T12:09:37.252Z,22.40
2022-10-10T12:12:33.421Z,21.80
2022-10-10T12:15:31.060Z,22.50
2022-10-10T12:18:38.105Z,22.00
2022-10-10T12:21:27.040Z,21.50
2022-10-10T12:24:14.189Z,22.00
2022-10-10T12:26:59.981Z,21.60
2022-10-10T12:30:08.285Z,22.40
2022-10-10T12:32:55.285Z,22.00
2022-10-10T12:35:41.872Z,22.10
2022-10-10T12:38:29.540Z,21.80
2022-10-10T12:41:16.623Z,21.70
2022-10-10T12:44:23.029Z,22.00
2022-10-10T12:47:15.026Z,21.60
2022-10-10T12:50:03.536Z,22.00
2022-10-10T12:52:54.891Z,23.00
2022-10-10T12:55:45.757Z,23.20
2022-10-10T12:58:34.060Z,23.00
2022-10-10T13:01:30.713Z,22.90
2022-10-10T13:04:18.197Z,23.20
2022-10-10T13:07:04.741Z,23.10
2022-10-10T13:09:52.863Z,22.60
2022-10-10T13:12:38.733Z,22.80
2022-10-10T13:15:25.423Z,23.20
2022-10-10T13:18:11.324Z,23.00
2022-10-10T13:20:57.100Z,22.90
2022-10-10T13:26:52.947Z,23.90
2022-10-10T13:29:41.308Z,23.60
2022-10-10T13:32:37.367Z,23.40
2022-10-10T13:35:26.640Z,23.90
2022-10-10T13:38:14.814Z,23.40
2022-10-10T13:41:04.208Z,23.80
2022-10-10T13:43:50.787Z,23.90
2022-10-10T13:46:36.235Z,23.90
2022-10-10T13:49:29.986Z,24.00
2022-10-10T13:52:23.905Z,24.10
2022-10-10T13:55:37.745Z,23.70
2022-10-10T13:58:23.534Z,23.90
2022-10-10T14:01:25.916Z,24.00
2022-10-10T14:04:24.516Z,24.00
2022-10-10T14:07:24.199Z,24.00
2022-10-10T14:10:14.060Z,23.80
2022-10-10T14:13:01.032Z,23.50
2022-10-10T14:15:47.515Z,23.50
2022-10-10T14:18:32.883Z,23.50
2022-10-10T14:21:18.805Z,23.00
2022-10-10T14:24:04.309Z,22.80
2022-10-10T14:26:50.379Z,23.00
2022-10-10T14:29:39.740Z,22.10
2022-10-10T14:32:25.469Z,22.60
2022-10-10T14:35:13.163Z,22.80
2022-10-10T14:37:58.622Z,23.00
2022-10-10T14:40:46.350Z,23.00
2022-10-10T14:43:31.937Z,22.80
2022-10-10T14:46:19.610Z,23.00
2022-10-10T14:49:09.665Z,23.00
2022-10-10T14:51:58.011Z,22.90
2022-10-10T14:54:43.576Z,22.80
2022-10-10T14:57:29.108Z,22.50
2022-10-10T15:00:17.024Z,22.30
2022-10-10T15:03:03.220Z,22.50
2022-10-10T15:05:51.996Z,22.40
2022-10-10T15:08:38.876Z,22.40
2022-10-10T15:11:24.431Z,22.30
2022-10-10T15:14:10.159Z,22.10
2022-10-10T15:16:55.712Z,22.20
2022-10-10T15:19:41.821Z,22.20
2022-10-10T15:22:29.963Z,22.30
2022-10-10T15:25:15.684Z,22.00
2022-10-10T15:28:02.709Z,21.80
2022-10-10T15:30:48.274Z,22.10
2022-10-10T15:33:34.147Z,22.30
2022-10-10T15:36:19.768Z,22.10
2022-10-10T15:39:05.247Z,22.30
2022-10-10T15:41:51.104Z,22.30
2022-10-10T15:44:38.105Z,22.00
2022-10-10T15:47:23.858Z,21.60
2022-10-10T15:50:10.993Z,22.00
2022-10-10T15:52:56.907Z,22.30
2022-10-10T15:55:46.864Z,22.50
2022-10-10T15:58:32.540Z,22.40
2022-10-10T16:01:20.175Z,22.30
2022-10-10T16:04:06.686Z,22.30
2022-10-10T16:07:19.895Z,22.20
2022-10-10T16:10:01.119Z,22.20
2022-10-10T16:12:46.762Z,22.30
2022-10-10T16:15:32.649Z,22.30
2022-10-10T16:18:18.261Z,22.30
2022-10-10T16:21:19.025Z,22.30
2022-10-10T16:24:05.007Z,22.20
2022-10-10T16:26:51.788Z,21.90
2022-10-10T16:29:39.310Z,21.50
2022-10-10T16:32:24.796Z,21.40
2022-10-10T16:35:12.941Z,21.20
2022-10-10T16:38:00.263Z,21.40
2022-10-10T16:40:45.691Z,21.10
2022-10-10T16:43:33.182Z,21.10
2022-10-10T16:46:22.736Z,21.20
2022-10-10T16:49:09.762Z,21.10
2022-10-10T16:51:55.971Z,21.10
2022-10-10T16:54:41.562Z,21.40
2022-10-10T16:57:26.921Z,21.20
2022-10-10T17:00:13.282Z,20.80
2022-10-10T17:02:58.693Z,20.90
2022-10-10T17:05:44.468Z,21.00
2022-10-10T17:08:32.134Z,20.70
2022-10-10T17:11:18.763Z,20.40
2022-10-10T17:14:04.573Z,20.80
2022-10-10T17:19:55.885Z,21.10
2022-10-10T17:22:42.989Z,20.80
2022-10-10T17:25:28.630Z,20.60
2022-10-10T17:28:16.143Z,20.60
2022-10-10T17:31:05.566Z,20.50
2022-10-10T17:33:53.932Z,20.50
2022-10-10T17:36:40.151Z,20.40
2022-10-10T17:39:25.808Z,20.40
2022-10-10T17:42:11.583Z,20.20
2022-10-10T17:44:59.757Z,20.20
2022-10-10T17:47:45.323Z,20.20
2022-10-10T17:50:30.635Z,20.10
2022-10-10T17:53:18.051Z,20.10
2022-10-10T17:56:05.435Z,20.00
2022-10-10T17:58:51.202Z,19.90
2022-10-10T18:01:37.943Z,19.90
2022-10-10T18:04:23.644Z,19.90
2022-10-10T18:07:09.418Z,19.90
2022-10-10T18:09:54.975Z,19.80
2022-10-10T18:12:40.566Z,19.90
2022-10-10T18:15:26.325Z,19.80
2022-10-10T18:18:11.815Z,19.90
2022-10-10T18:21:05.824Z,19.80
2022-10-10T18:23:51.795Z,19.60
2022-10-10T18:26:37.494Z,19.30
2022-10-10T18:29:23.352Z,19.20
2022-10-10T18:32:09.353Z,19.30
2022-10-10T18:34:54.931Z,19.30
2022-10-10T18:37:40.330Z,19.30
2022-10-10T18:40:25.928Z,19.20
2022-10-10T18:43:12.866Z,19.20
2022-10-10T18:46:03.199Z,19.20
2022-10-10T18:48:52.918Z,19.20
2022-10-10T18:51:41.483Z,19.20
2022-10-10T18:54:27.985Z,19.20
2022-10-10T18:57:13.826Z,19.20
2022-10-10T18:59:59.575Z,19.20
2022-10-10T19:02:45.615Z,19.30
2022-10-10T19:05:31.096Z,19.40
2022-10-10T19:08:16.707Z,19.40
2022-10-10T19:11:03.449Z,19.30
2022-10-10T19:13:49.323Z,19.30
2022-10-10T19:16:35.829Z,19.30
2022-10-10T19:19:21.371Z,19.30
2022-10-10T19:22:08.633Z,19.30
2022-10-10T19:24:55.353Z,19.30
2022-10-10T19:27:40.725Z,19.30
2022-10-10T19:30:28.165Z,19.30
2022-10-10T19:33:14.518Z,19.20
2022-10-10T19:36:01.810Z,19.20
2022-10-10T19:38:47.265Z,19.30
2022-10-10T19:41:32.826Z,19.20
2022-10-10T19:44:18.430Z,19.20
2022-10-10T19:47:04.131Z,19.20
2022-10-10T19:49:49.831Z,19.10
2022-10-10T19:52:35.778Z,19.10
2022-10-10T19:55:21.470Z,19.00
2022-10-10T19:58:07.744Z,19.00
2022-10-10T20:00:54.512Z,18.90
2022-10-10T20:03:40.546Z,18.80
2022-10-10T20:06:27.508Z,18.80
2022-10-10T20:09:13.018Z,18.80
2022-10-10T20:11:58.453Z,18.90
2022-10-10T20:14:43.957Z,18.90
2022-10-10T20:17:29.464Z,18.90
2022-10-10T20:20:16.564Z,18.70
2022-10-10T20:23:02.651Z,18.60
2022-10-10T20:25:48.810Z,18.50
2022-10-10T20:28:34.339Z,18.40
2022-10-10T20:31:24.038Z,18.40
2022-10-10T20:34:10.313Z,18.40
2022-10-10T20:36:55.915Z,18.30
2022-10-10T20:39:41.549Z,18.30
2022-10-10T20:42:27.062Z,18.40
2022-10-10T20:45:12.988Z,18.50
2022-10-10T20:47:58.447Z,18.50
2022-10-10T20:50:43.966Z,18.40
2022-10-10T20:53:29.562Z,18.20
2022-10-10T20:56:15.048Z,18.20
2022-10-10T20:59:01.056Z,18.30
2022-10-10T21:01:47.468Z,19.70
2022-10-10T21:04:33.513Z,18.40
2022-10-10T21:07:18.982Z,18.40
2022-10-10T21:10:04.741Z,18.50
2022-10-10T21:12:50.575Z,18.40
2022-10-10T21:15:36.660Z,18.40
2022-10-10T21:18:22.098Z,18.30
2022-10-10T21:21:08.703Z,18.30
2022-10-10T21:23:56.453Z,18.30
2022-10-10T21:26:43.414Z,18.30
2022-10-10T21:29:28.910Z,18.20
2022-10-10T21:32:14.538Z,18.30
2022-10-10T21:35:00.176Z,18.20
2022-10-10T21:37:45.748Z,18.10
2022-10-10T21:40:31.038Z,18.10
2022-10-10T21:43:17.081Z,18.00
2022-10-10T21:46:04.997Z,18.00
2022-10-10T21:48:54.399Z,17.90
2022-10-10T21:51:43.152Z,17.80
2022-10-10T21:54:28.556Z,17.80
2022-10-10T21:57:14.778Z,17.80
2022-10-10T22:00:00.294Z,17.80
2022-10-10T22:02:46.575Z,17.70
2022-10-10T22:05:34.904Z,17.70
2022-10-10T22:08:20.340Z,17.80
2022-10-10T22:11:08.697Z,17.70
2022-10-10T22:13:54.389Z,17.70
2022-10-10T22:16:40.222Z,17.60
2022-10-10T22:19:25.923Z,17.70
2022-10-10T22:22:11.493Z,17.70
2022-10-10T22:24:57.399Z,17.70
2022-10-10T22:27:44.015Z,17.50
2022-10-10T22:30:29.350Z,17.60
2022-10-10T22:33:14.864Z,17.60
2022-10-10T22:36:00.756Z,17.50
2022-10-10T22:38:46.480Z,17.50
2022-10-10T22:41:32.142Z,17.50
2022-10-10T22:44:17.813Z,17.50
2022-10-10T22:47:04.002Z,17.50
2022-10-10T22:49:49.701Z,17.50
2022-10-10T22:52:36.787Z,17.40
2022-10-10T22:55:22.112Z,17.40
2022-10-10T22:58:07.571Z,17.50
2022-10-10T23:00:53.083Z,17.50
2022-10-10T23:03:38.644Z,17.50
2022-10-10T23:06:23.954Z,17.50
2022-10-10T23:09:11.768Z,17.50
2022-10-10T23:11:57.453Z,17.50
2022-10-10T23:14:42.920Z,17.50
2022-10-10T23:17:28.667Z,17.60
2022-10-10T23:20:14.562Z,17.60
2022-10-10T23:23:00.307Z,17.50
2022-10-10T23:25:47.632Z,17.40
2022-10-10T23:28:34.243Z,17.40
2022-10-10T23:31:20.357Z,17.40
2022-10-10T23:34:06.303Z,17.30
2022-10-10T23:36:52.184Z,17.30
2022-10-10T23:39:41.864Z,17.30
2022-10-10T23:42:28.035Z,17.20
2022-10-10T23:45:13.799Z,17.30
2022-10-10T23:47:59.418Z,17.30
2022-10-10T23:50:45.288Z,17.30
2022-10-10T23:53:32.458Z,17.30
2022-10-10T23:56:18.543Z,17.10
2022-10-10T23:59:04.721Z,17.10
